Main page
METAR-TAF:

METAR-TAF

Airports :

Hans Christian Andersen Airport

Odense, Denmark

latitude: 55-29N, longitude: 010-20E, elevation: 17 m

Current weather observation

The report was made 43 minutes ago, at 06:50 UTC
Wind 9 kt from the South
Temperature 7°C
Humidity 93%
Pressure 991 hPa
Visibility: 8000 m
Broken clouds at a height of 1000 ft
light rain,

METAR: EKOD 220650Z 18009KT 8000 -RA BKN010 07/06 Q0991

Time: 08:33 (07:33 UTC)

Forecast

The report was made 27 minutes ago, at 07:06 UTC
Forecast valid from 22 at 07 UTC to 22 at 15 UTC
Wind 10 kt from the South
Visibility: 1200 m
Broken clouds at a height of 200 ft
mist
Temporary
from 22 at 07 UTC to 22 at 15 UTC
Visibility: 6000 m
Scattered clouds at a height of 400 ft
Broken clouds at a height of 1000 ft
light rain, drizzle,

TAF: EKOD 220706Z 2207/2215 18010KT 1200 BR BKN002 TEMPO 2207/2215 6000 -RADZ SCT004 BKN010

Weather observations and forecasts of more than 4000 airports (METAR and TAF reports).

The available stations are represented by yellow and red dots on the map.

Hover mouse over dot to see the name of the station.

Then click to see weather observations and forecasts.

To change the map : click on the green buttons with a black cross to zoom in, on the green button with a dash to zoom out, or on the green arrows for adjacent maps.


METAR-TAF: